M I D A S
Marine Information and Data Acquisition System
Tripno 1686 of the Zeeleeuw from 2009-05-04 08:00:00 to 2009-05-04 17:00:00
Back to CruiseResearch ActivitiesStationsMapUnderway DataData graphs

EquipmentUnitsComments
TimeDGPSUTC
LatitudeDGPSDM.mWGS84
LongitudeDGPSDM.mWGS84
SpeedMeteo Stationm/sRelative wind speed
DirectionMeteo StationdegRelative wind direction
TemperatureMeteo Stationdeg CelciusAir temperature
PressureMeteo StationPaAtmospheric pressure
HumidityMeteo Station%Relative humidity
Missing or incorrect values are displayed as -999
Metereological data collected by the RV Zeeleeuw from 2009-05-04 08:00:00 to 2009-05-04 17:00:00
Time Latitude Longitude Speed Direction Temperature Pressure Humidity
2009-05-04 13:47:13 51°11.829 2°50.585 4.3 33 10.3 102750 73
2009-05-04 13:47:13 51°11.829 2°50.585 2.4 23 10.3 102750 73
2009-05-04 13:47:13 51°11.829 2°50.585 2.7 36 10.3 102750 73
2009-05-04 13:47:13 51°11.829 2°50.585 2.6 29 10.3 102750 73
2009-05-04 13:47:13 51°11.829 2°50.585 2.5 36 10.3 102750 73
2009-05-04 13:47:13 51°11.829 2°50.585 2.5 24 10.3 102750 73
2009-05-04 13:47:13 51°11.829 2°50.585 4.5 26 10.3 102750 73
2009-05-04 13:47:13 51°11.829 2°50.585 3 20 10.3 102750 73
2009-05-04 13:47:13 51°11.829 2°50.585 2.4 23 10.3 102750 73
2009-05-04 13:47:14 51°12.384 2°41.022 2.3 263 11.4 102650 58
2009-05-04 13:47:19 51°12.393 2°41.041 2.7 268 11.4 102650 58
2009-05-04 13:47:24 51°12.403 2°41.061 2.8 267 11.4 102650 58
2009-05-04 13:47:29 51°12.411 2°41.081 2.9 269 11.4 102650 58
2009-05-04 13:47:34 51°12.42 2°41.101 2.1 264 11.3 102650 58
2009-05-04 13:47:38 51°12.428 2°41.117 2.5 268 11.3 102650 58
2009-05-04 13:47:44 51°12.439 2°41.14 2.5 26 11.3 102640 58
2009-05-04 13:47:49 51°12.448 2°41.16 2.9 262 11.3 102640 58
2009-05-04 13:47:54 51°12.457 2°41.18 2.6 259 11.3 102640 57
2009-05-04 13:47:59 51°12.466 2°41.199 2.1 264 11.3 102640 57
2009-05-04 13:48:04 51°12.475 2°41.219 2.1 264 11.3 102650 57
2009-05-04 13:48:09 51°12.485 2°41.238 1.7 261 11.3 102650 57
2009-05-04 13:48:14 51°12.494 2°41.258 2.5 261 11.3 102650 58
2009-05-04 13:48:19 51°12.504 2°41.277 2 266 11.3 102650 58
2009-05-04 13:48:24 51°12.512 2°41.297 1.8 263 11.3 102640 58
2009-05-04 13:48:29 51°12.522 2°41.317 1.8 260 11.3 102640 58
2009-05-04 13:48:34 51°12.531 2°41.337 2 263 11.3 102640 57
2009-05-04 13:48:39 51°12.54 2°41.356 1.8 262 11.3 102640 57
2009-05-04 13:48:45 51°12.551 2°41.38 2.2 262 11.3 102640 58
2009-05-04 13:48:49 51°12.559 2°41.395 1.8 265 11.3 102640 58
2009-05-04 13:48:54 51°12.568 2°41.415 1.8 267 11.3 102640 58
2009-05-04 13:48:59 51°12.577 2°41.435 2.1 270 11.3 102640 58
2009-05-04 13:49:04 51°12.585 2°41.456 2.2 268 11.4 102640 59
2009-05-04 13:49:09 51°12.595 2°41.475 2.6 269 11.4 102640 59
2009-05-04 13:49:14 51°12.603 2°41.496 2.4 25 11.4 102640 59
2009-05-04 13:49:19 51°12.612 2°41.516 2.4 4 11.4 102640 59
2009-05-04 13:49:25 51°12.623 2°41.54 1.6 264 11.4 102640 59
2009-05-04 13:49:30 51°12.632 2°41.56 1.3 263 11.4 102640 59
2009-05-04 13:49:34 51°12.639 2°41.577 1.4 264 11.4 102640 58
2009-05-04 13:49:39 51°12.648 2°41.597 1.6 265 11.4 102640 58
2009-05-04 13:49:44 51°12.657 2°41.617 1.4 266 11.3 102640 58
2009-05-04 13:49:49 51°12.665 2°41.637 1.9 268 11.3 102640 58
2009-05-04 13:49:54 51°12.674 2°41.657 2.1 265 11.4 102640 58
2009-05-04 13:49:59 51°12.683 2°41.678 2.6 256 11.4 102640 58
2009-05-04 13:50:04 51°12.692 2°41.698 2.2 261 11.4 102640 59
2009-05-04 13:50:10 51°12.702 2°41.722 2.7 267 11.4 102640 59
2009-05-04 13:50:14 51°12.709 2°41.739 3 25 11.4 102630 59
2009-05-04 13:50:19 51°12.717 2°41.759 3.6 270 11.4 102630 59
2009-05-04 13:50:24 51°12.726 2°41.78 3.2 270 11.4 102640 60
2009-05-04 13:50:29 51°12.734 2°41.801 3.1 270 11.4 102640 60
2009-05-04 13:50:34 51°12.742 2°41.822 2.7 268 11.4 102640 60
2009-05-04 13:50:38 51°12.748 2°41.838 3.2 37 11.4 102640 60
2009-05-04 13:50:44 51°12.759 2°41.863 3 11 11.5 102640 60
2009-05-04 13:50:49 51°12.767 2°41.884 2.4 267 11.5 102640 60
2009-05-04 13:50:54 51°12.775 2°41.904 2.7 268 11.5 102640 60
2009-05-04 13:51:00 51°12.786 2°41.929 2.5 261 11.5 102640 60
2009-05-04 13:51:04 51°12.793 2°41.945 2.3 265 11.4 102630 59
2009-05-04 13:51:09 51°12.801 2°41.966 2.9 261 11.4 102630 59
2009-05-04 13:51:14 51°12.809 2°41.986 2.8 265 11.5 102640 59
2009-05-04 13:51:19 51°12.817 2°42.007 2.2 265 11.5 102640 59
2009-05-04 13:51:24 51°12.825 2°42.028 2.4 284 11.5 102640 60
2009-05-04 13:51:29 51°12.833 2°42.05 2.7 267 11.5 102640 60
2009-05-04 13:51:34 51°12.842 2°42.07 2 279 11.5 102640 60
2009-05-04 13:51:38 51°12.847 2°42.087 2.6 264 11.5 102640 60
2009-05-04 13:51:45 51°12.859 2°42.117 2.5 265 11.5 102640 60
2009-05-04 13:51:49 51°12.865 2°42.134 2.2 261 11.5 102640 60
2009-05-04 13:51:54 51°12.873 2°42.155 3.8 279 11.5 102640 60
2009-05-04 13:51:59 51°12.881 2°42.176 3.9 274 11.5 102640 60
2009-05-04 13:52:04 51°12.889 2°42.197 3.2 281 11.5 102640 60
2009-05-04 13:52:09 51°12.897 2°42.218 3.2 270 11.5 102640 60
2009-05-04 13:52:14 51°12.905 2°42.239 2.9 283 11.5 102640 59
2009-05-04 13:52:19 51°12.913 2°42.26 2.5 268 11.5 102640 59
2009-05-04 13:52:24 51°12.921 2°42.281 3 285 11.5 102640 58
2009-05-04 13:52:29 51°12.929 2°42.303 3.4 8 11.5 102640 58
2009-05-04 13:52:34 51°12.937 2°42.324 2.7 82 11.5 102640 58
2009-05-04 13:52:40 51°12.946 2°42.349 2.9 270 11.5 102640 58
2009-05-04 13:52:44 51°12.952 2°42.366 3 269 11.5 102640 58
2009-05-04 13:52:49 51°12.96 2°42.388 2.7 38 11.5 102640 58
2009-05-04 13:52:54 51°12.967 2°42.409 2.1 75 11.5 102640 58
2009-05-04 13:52:59 51°12.974 2°42.431 3.1 38 11.5 102640 58
2009-05-04 13:53:04 51°12.982 2°42.452 3.2 76 11.5 102640 57
2009-05-04 13:53:09 51°12.99 2°42.473 3.5 40 11.5 102640 57
2009-05-04 13:53:14 51°12.998 2°42.494 2.6 77 11.5 102640 58
2009-05-04 13:53:20 51°13.007 2°42.519 2.4 31 11.5 102640 58
2009-05-04 13:53:24 51°13.013 2°42.536 2.7 82 11.4 102640 58
2009-05-04 13:53:29 51°13.021 2°42.558 3.1 39 11.4 102640 58
2009-05-04 13:53:34 51°13.028 2°42.579 3.1 81 11.4 102640 58
2009-05-04 13:53:39 51°13.035 2°42.6 2.6 34 11.4 102640 58
2009-05-04 13:53:45 51°13.044 2°42.626 2.8 28 11.5 102630 59
2009-05-04 13:53:49 51°13.049 2°42.644 2.7 31 11.5 102630 59
2009-05-04 13:53:54 51°13.056 2°42.665 2.7 73 11.4 102640 58
2009-05-04 13:53:59 51°13.063 2°42.687 2.5 33 11.4 102640 58
2009-05-04 13:54:04 51°13.07 2°42.709 3 75 11.4 102640 57
2009-05-04 13:54:09 51°13.077 2°42.73 2.5 40 11.4 102640 57
2009-05-04 13:54:14 51°13.084 2°42.752 2.3 79 11.4 102640 57
2009-05-04 13:54:19 51°13.09 2°42.774 1.4 30 11.4 102640 57
2009-05-04 13:54:24 51°13.096 2°42.797 1.1 79 11.4 102640 57
2009-05-04 13:54:29 51°13.103 2°42.819 0.8 29 11.4 102640 57
2009-05-04 13:54:34 51°13.109 2°42.841 2 73 11.4 102640 57
2009-05-04 13:54:39 51°13.115 2°42.864 1.9 39 11.4 102640 57
2009-05-04 13:54:44 51°13.12 2°42.887 2.2 26 11.4 102640 58
2009-05-04 13:54:49 51°13.126 2°42.909 1.7 267 11.4 102640 58
2009-05-04 13:54:54 51°13.132 2°42.932 1.3 83 11.4 102640 58
2009-05-04 13:55:00 51°13.139 2°42.959 1.7 39 11.4 102640 58
2009-05-04 13:55:04 51°13.143 2°42.977 2.2 79 11.4 102640 59
2009-05-04 13:55:09 51°13.149 2°42.999 1.7 32 11.4 102640 59
2009-05-04 13:55:14 51°13.154 2°43.022 0.9 280 11.4 102640 59
2009-05-04 13:55:19 51°13.16 2°43.044 1.7 270 11.4 102640 59
2009-05-04 13:55:24 51°13.166 2°43.067 2.1 81 11.4 102640 60
2009-05-04 13:55:29 51°13.172 2°43.089 2 40 11.4 102640 60
2009-05-04 13:55:34 51°13.177 2°43.112 2 87 11.4 102650 60
2009-05-04 13:55:40 51°13.185 2°43.138 2 35 11.4 102650 60
2009-05-04 13:55:45 51°13.19 2°43.161 2.1 21 11.4 102640 60
2009-05-04 13:55:49 51°13.195 2°43.178 2.5 34 11.4 102640 60
2009-05-04 13:55:54 51°13.201 2°43.201 2.1 82 11.5 102640 60
2009-05-04 13:55:59 51°13.208 2°43.222 2 37 11.5 102640 60
2009-05-04 13:56:05 51°13.214 2°43.249 2.2 79 11.4 102640 60
2009-05-04 13:56:09 51°13.22 2°43.267 2.2 30 11.4 102640 60
2009-05-04 13:56:14 51°13.225 2°43.289 2.3 80 11.4 102640 58
2009-05-04 13:56:19 51°13.231 2°43.311 2.5 34 11.4 102640 58
2009-05-04 13:56:25 51°13.239 2°43.337 2.6 76 11.4 102640 58
2009-05-04 13:56:29 51°13.244 2°43.355 2.2 39 11.4 102640 58
2009-05-04 13:56:34 51°13.25 2°43.377 2.6 80 11.4 102640 57
2009-05-04 13:56:40 51°13.257 2°43.403 2.2 33 11.4 102640 57
2009-05-04 13:56:44 51°13.262 2°43.42 2.3 26 11.4 102640 57
2009-05-04 13:56:49 51°13.268 2°43.442 1.5 39 11.4 102640 57
2009-05-04 13:56:54 51°13.274 2°43.464 1.8 76 11.4 102640 56
2009-05-04 13:56:59 51°13.28 2°43.486 2 38 11.4 102640 56
2009-05-04 13:57:04 51°13.286 2°43.508 1.5 284 11.4 102640 57
2009-05-04 13:57:09 51°13.293 2°43.529 1.3 268 11.4 102640 57
2009-05-04 13:57:14 51°13.298 2°43.551 1.6 88 11.4 102640 57
2009-05-04 13:57:20 51°13.306 2°43.577 1.7 268 11.4 102640 57
2009-05-04 13:57:24 51°13.311 2°43.594 2.7 80 11.4 102640 57
2009-05-04 13:57:29 51°13.317 2°43.615 1.9 32 11.4 102640 57
2009-05-04 13:57:34 51°13.323 2°43.637 1.5 277 11.4 102640 58
2009-05-04 13:57:39 51°13.329 2°43.659 1.1 36 11.4 102640 58
2009-05-04 13:57:45 51°13.336 2°43.685 1.3 265 11.4 102640 59
2009-05-04 13:57:49 51°13.342 2°43.701 1.9 40 11.4 102640 59
2009-05-04 13:57:54 51°13.347 2°43.723 2.4 80 11.4 102640 59
2009-05-04 13:57:59 51°13.354 2°43.744 2.5 36 11.4 102640 59
2009-05-04 13:58:05 51°13.362 2°43.77 3 77 11.4 102640 59
2009-05-04 13:58:09 51°13.367 2°43.787 3.2 34 11.4 102640 59
2009-05-04 13:58:14 51°13.373 2°43.809 2.5 82 11.4 102640 59
2009-05-04 13:58:19 51°13.379 2°43.83 2.3 37 11.4 102640 59
2009-05-04 13:58:25 51°13.387 2°43.856 2.3 79 11.4 102640 58
2009-05-04 13:58:29 51°13.392 2°43.873 2.1 270 11.4 102640 58
2009-05-04 13:58:34 51°13.398 2°43.895 1.8 279 11.4 102640 58
2009-05-04 13:58:39 51°13.404 2°43.917 2.4 44 11.4 102640 58
2009-05-04 13:58:44 51°13.411 2°43.938 2.2 25 11.5 102640 59
2009-05-04 13:58:49 51°13.417 2°43.96 2.2 39 11.5 102640 59
2009-05-04 13:58:54 51°13.424 2°43.981 1.5 83 11.5 102640 59
2009-05-04 13:59:00 51°13.431 2°44.007 2.3 39 11.5 102640 59
2009-05-04 13:59:04 51°13.437 2°44.024 2.3 79 11.5 102640 59
2009-05-04 13:59:09 51°13.443 2°44.046 2 33 11.5 102640 59
2009-05-04 13:59:14 51°13.449 2°44.067 1.3 293 11.5 102640 59
2009-05-04 13:59:19 51°13.455 2°44.089 2.5 31 11.5 102640 59
2009-05-04 13:59:24 51°13.461 2°44.111 2.5 74 11.4 102640 58
2009-05-04 13:59:29 51°13.467 2°44.133 2.8 37 11.4 102640 58
2009-05-04 13:59:34 51°13.473 2°44.155 2.1 287 11.4 102640 58
2009-05-04 13:59:40 51°13.479 2°44.182 2 31 11.4 102640 58
2009-05-04 13:59:45 51°13.485 2°44.204 2.2 27 11.5 102640 58
2009-05-04 13:59:49 51°13.49 2°44.222 2.7 30 11.5 102640 58
2009-05-04 13:59:54 51°13.495 2°44.244 2 83 11.5 102640 59
2009-05-04 13:59:59 51°13.501 2°44.266 2.9 37 11.5 102640 59
2009-05-04 14:00:05 51°13.508 2°44.292 2.4 82 11.5 102640 59
2009-05-04 14:00:09 51°13.513 2°44.31 1.8 39 11.5 102640 59
2009-05-04 14:00:14 51°13.519 2°44.332 2.3 82 11.5 102640 58
2009-05-04 14:00:19 51°13.524 2°44.354 2.2 39 11.5 102640 58
2009-05-04 14:00:25 51°13.531 2°44.381 2.2 80 11.5 102640 58
2009-05-04 14:00:29 51°13.536 2°44.399 1.9 39 11.5 102640 58
2009-05-04 14:00:34 51°13.542 2°44.421 1.6 76 11.4 102630 58
2009-05-04 14:00:39 51°13.548 2°44.443 1.7 32 11.4 102630 58
2009-05-04 14:00:45 51°13.555 2°44.47 1.8 26 11.4 102630 58
2009-05-04 14:00:49 51°13.56 2°44.487 2.2 34 11.4 102630 58
2009-05-04 14:00:54 51°13.565 2°44.51 2.2 78 11.4 102640 57
2009-05-04 14:00:59 51°13.571 2°44.532 2.5 34 11.4 102640 57
2009-05-04 14:01:05 51°13.579 2°44.558 1.8 81 11.4 102630 57
2009-05-04 14:01:09 51°13.584 2°44.575 1.9 39 11.4 102630 57
2009-05-04 14:01:14 51°13.59 2°44.597 2.2 81 11.4 102630 57
2009-05-04 14:01:20 51°13.598 2°44.623 1.8 32 11.4 102630 57
2009-05-04 14:01:24 51°13.603 2°44.64 1.6 78 11.4 102630 57
2009-05-04 14:01:29 51°13.609 2°44.662 1.6 38 11.4 102630 57
2009-05-04 14:01:34 51°13.616 2°44.684 1.7 78 11.4 102630 58
2009-05-04 14:01:39 51°13.623 2°44.705 1.9 41 11.4 102630 58
2009-05-04 14:01:45 51°13.63 2°44.731 1.8 21 11.4 102640 58
2009-05-04 14:01:49 51°13.635 2°44.748 2 37 11.4 102640 58
2009-05-04 14:01:54 51°13.642 2°44.77 1.4 79 11.4 102630 58
2009-05-04 14:01:59 51°13.647 2°44.792 1.5 31 11.4 102630 58
2009-05-04 14:02:05 51°13.655 2°44.818 1.3 74 11.4 102630 59
2009-05-04 14:02:09 51°13.659 2°44.836 2 37 11.4 102630 59
2009-05-04 14:02:14 51°13.666 2°44.858 1.8 76 11.4 102630 58
2009-05-04 14:02:19 51°13.671 2°44.881 1.6 36 11.4 102630 58
2009-05-04 14:02:25 51°13.678 2°44.907 1.9 80 11.4 102640 58
2009-05-04 14:02:29 51°13.683 2°44.925 1.3 36 11.4 102640 58
2009-05-04 14:02:34 51°13.689 2°44.947 0.9 283 11.4 102640 59
2009-05-04 14:02:39 51°13.694 2°44.97 1 249 11.4 102640 59
2009-05-04 14:02:45 51°13.701 2°44.996 1 27 11.4 102630 59
2009-05-04 14:02:49 51°13.706 2°45.014 2.3 270 11.4 102630 59
2009-05-04 14:02:54 51°13.712 2°45.036 2.1 77 11.5 102630 60
2009-05-04 14:02:59 51°13.718 2°45.059 2.5 33 11.5 102630 60
2009-05-04 14:03:05 51°13.724 2°45.085 3 85 11.5 102630 60
2009-05-04 14:03:09 51°13.729 2°45.103 2.8 39 11.5 102630 60
2009-05-04 14:03:14 51°13.735 2°45.125 2.4 74 11.5 102640 61
2009-05-04 14:03:19 51°13.741 2°45.147 2.8 40 11.5 102640 61
2009-05-04 14:03:25 51°13.748 2°45.174 2.4 76 11.5 102630 61
2009-05-04 14:03:29 51°13.753 2°45.192 1.9 32 11.5 102630 61
2009-05-04 14:03:34 51°13.759 2°45.213 3.1 80 11.5 102640 61
2009-05-04 14:03:39 51°13.764 2°45.236 2.4 36 11.5 102640 61
2009-05-04 14:03:44 51°13.77 2°45.258 2.5 19 11.5 102630 60
2009-05-04 14:03:50 51°13.777 2°45.284 2.2 31 11.5 102630 60
2009-05-04 14:03:54 51°13.782 2°45.302 2.7 74 11.5 102630 60
2009-05-04 14:04:00 51°13.789 2°45.328 2.6 30 11.5 102630 60
2009-05-04 14:04:04 51°13.795 2°45.345 2.5 73 11.5 102630 59
2009-05-04 14:04:09 51°13.801 2°45.367 2.5 31 11.5 102630 59
2009-05-04 14:04:14 51°13.808 2°45.388 2.3 76 11.5 102630 59
2009-05-04 14:04:20 51°13.815 2°45.414 2.7 36 11.5 102630 59
2009-05-04 14:04:24 51°13.82 2°45.431 2.3 77 11.5 102630 59
2009-05-04 14:04:29 51°13.826 2°45.453 2.2 30 11.5 102630 59
2009-05-04 14:04:34 51°13.833 2°45.475 2 22 11.5 102630 59
2009-05-04 14:04:39 51°13.839 2°45.496 2.4 36 11.5 102630 59
2009-05-04 14:04:45 51°13.847 2°45.522 2.7 21 11.5 102630 59
2009-05-04 14:04:49 51°13.852 2°45.539 2.1 36 11.5 102630 59
2009-05-04 14:04:54 51°13.857 2°45.561 2.7 79 11.5 102630 58
2009-05-04 14:04:59 51°13.864 2°45.583 2.8 36 11.5 102630 58
2009-05-04 14:05:05 51°13.871 2°45.61 2.1 74 11.5 102630 58
2009-05-04 14:05:09 51°13.875 2°45.627 1.7 40 11.5 102630 58
2009-05-04 14:05:14 51°13.881 2°45.649 1.4 84 11.4 102630 58
2009-05-04 14:05:19 51°13.887 2°45.672 2.1 31 11.4 102630 58
2009-05-04 14:05:25 51°13.894 2°45.698 2.2 76 11.5 102630 58
2009-05-04 14:05:30 51°13.9 2°45.72 2.2 38 11.5 102630 58
2009-05-04 14:05:34 51°13.905 2°45.738 1.6 79 11.5 102630 59
2009-05-04 14:05:38 51°13.909 2°45.756 1.7 265 11.5 102630 59
2009-05-04 14:05:45 51°13.917 2°45.786 2 31 11.5 102630 60
2009-05-04 14:05:49 51°13.922 2°45.804 2.7 30 11.5 102630 60
2009-05-04 14:05:54 51°13.928 2°45.826 2.7 79 11.5 102630 60
2009-05-04 14:06:00 51°13.935 2°45.853 3.3 38 11.5 102630 60
2009-05-04 14:06:04 51°13.939 2°45.871 3.5 73 11.5 102630 61
2009-05-04 14:06:09 51°13.945 2°45.893 2.8 31 11.5 102630 61
2009-05-04 14:06:14 51°13.951 2°45.915 2.7 81 11.6 102630 61
2009-05-04 14:06:19 51°13.956 2°45.937 2.9 37 11.6 102630 61
2009-05-04 14:06:24 51°13.963 2°45.959 2.3 75 11.5 102630 60
2009-05-04 14:06:29 51°13.968 2°45.981 2.3 35 11.5 102630 60
2009-05-04 14:06:34 51°13.975 2°46.003 2.1 73 11.5 102630 60
2009-05-04 14:06:39 51°13.98 2°46.025 1.6 270 11.5 102630 60
2009-05-04 14:06:45 51°13.988 2°46.051 1.9 269 11.5 102630 59
2009-05-04 14:06:49 51°13.993 2°46.069 2.3 34 11.5 102630 59
2009-05-04 14:06:54 51°13.999 2°46.09 2.9 74 11.5 102630 58
2009-05-04 14:06:59 51°14.006 2°46.112 3 40 11.5 102630 58
2009-05-04 14:07:05 51°14.014 2°46.138 2.6 81 11.5 102630 59
2009-05-04 14:07:09 51°14.018 2°46.155 2.9 39 11.5 102630 59
2009-05-04 14:07:14 51°14.024 2°46.177 2.8 81 11.5 102630 59
2009-05-04 14:07:19 51°14.03 2°46.199 3.5 37 11.5 102630 59
2009-05-04 14:07:25 51°14.038 2°46.225 3.7 76 11.5 102630 59
2009-05-04 14:07:29 51°14.042 2°46.243 4.2 40 11.5 102630 59
2009-05-04 14:07:34 51°14.049 2°46.264 3.5 79 11.5 102630 59
2009-05-04 14:07:38 51°14.053 2°46.282 3.1 37 11.5 102630 59
2009-05-04 14:07:44 51°14.061 2°46.307 3.6 24 11.5 102630 58
2009-05-04 14:07:49 51°14.067 2°46.329 3.3 33 11.5 102630 58
2009-05-04 14:07:54 51°14.073 2°46.351 2.4 81 11.5 102630 57
2009-05-04 14:07:59 51°14.08 2°46.372 2.3 36 11.5 102630 57
2009-05-04 14:08:04 51°14.086 2°46.394 2.7 77 11.4 102630 56
2009-05-04 14:08:10 51°14.092 2°46.42 2.1 36 11.4 102630 56
2009-05-04 14:08:14 51°14.095 2°46.438 1.6 76 11.4 102630 55
2009-05-04 14:08:19 51°14.099 2°46.461 1.8 38 11.4 102630 55
2009-05-04 14:08:24 51°14.102 2°46.484 1.7 78 11.4 102630 56
2009-05-04 14:08:30 51°14.105 2°46.511 2.1 39 11.4 102630 56
2009-05-04 14:08:34 51°14.107 2°46.53 2.4 79 11.4 102630 56
2009-05-04 14:08:39 51°14.109 2°46.554 2.5 31 11.4 102630 56
2009-05-04 14:08:45 51°14.112 2°46.581 2.5 21 11.4 102630 57
2009-05-04 14:08:49 51°14.112 2°46.6 1.4 32 11.4 102630 57
2009-05-04 14:08:54 51°14.114 2°46.623 1.4 31 11.4 102630 57
2009-05-04 14:09:00 51°14.115 2°46.651 1.6 41 11.4 102630 57
2009-05-04 14:09:04 51°14.118 2°46.67 2.6 39 11.4 102630 58
2009-05-04 14:09:09 51°14.117 2°46.693 2.2 39 11.4 102630 58
2009-05-04 14:09:14 51°14.12 2°46.716 1.8 20 11.4 102630 59
2009-05-04 14:09:19 51°14.12 2°46.74 2.3 33 11.4 102630 59
2009-05-04 14:09:24 51°14.121 2°46.763 2.9 39 11.5 102630 59
2009-05-04 14:09:30 51°14.122 2°46.792 2.4 41 11.5 102630 59
2009-05-04 14:09:34 51°14.122 2°46.81 2.2 40 11.5 102630 60
2009-05-04 14:09:40 51°14.123 2°46.838 1.7 44 11.5 102630 60
2009-05-04 14:09:45 51°14.124 2°46.862 2.1 40 11.5 102630 60
2009-05-04 14:09:49 51°14.125 2°46.881 2.7 45 11.5 102630 60
2009-05-04 14:09:54 51°14.125 2°46.904 2 39 11.6 102630 60
2009-05-04 14:09:59 51°14.126 2°46.927 2 31 11.6 102630 60
2009-05-04 14:10:04 51°14.125 2°46.951 2.1 41 11.6 102620 60
2009-05-04 14:10:10 51°14.127 2°46.979 2.1 34 11.6 102620 60
2009-05-04 14:10:14 51°14.126 2°46.998 2.4 43 11.6 102630 60
2009-05-04 14:10:18 51°14.127 2°47.017 2.2 29 11.6 102630 60
2009-05-04 14:10:24 51°14.127 2°47.046 2.2 77 11.6 102620 59
2009-05-04 14:10:29 51°14.128 2°47.069 2.3 44 11.6 102620 59
2009-05-04 14:10:34 51°14.129 2°47.093 1.9 37 11.6 102630 60
2009-05-04 14:10:39 51°14.129 2°47.117 2.1 40 11.6 102630 60
2009-05-04 14:10:44 51°14.13 2°47.141 2.1 38 11.6 102620 60
2009-05-04 14:10:49 51°14.13 2°47.164 2.8 40 11.6 102620 60
2009-05-04 14:10:54 51°14.13 2°47.188 2.3 44 11.6 102620 59
2009-05-04 14:11:00 51°14.13 2°47.217 2.4 40 11.6 102620 59
2009-05-04 14:11:04 51°14.13 2°47.236 2.2 43 11.6 102620 59
2009-05-04 14:11:10 51°14.13 2°47.265 2.1 38 11.6 102620 59
2009-05-04 14:11:14 51°14.129 2°47.284 2.4 45 11.6 102620 58
2009-05-04 14:11:20 51°14.129 2°47.313 3.1 41 11.6 102620 58
2009-05-04 14:11:24 51°14.128 2°47.332 3.4 43 11.6 102620 57
2009-05-04 14:11:29 51°14.128 2°47.356 3.1 43 11.6 102620 57
2009-05-04 14:11:34 51°14.128 2°47.38 3.5 80 11.6 102620 57
2009-05-04 14:11:40 51°14.128 2°47.409 3 38 11.6 102620 57
2009-05-04 14:11:45 51°14.128 2°47.433 3.1 21 11.6 102620 58
2009-05-04 14:11:49 51°14.127 2°47.453 2.7 45 11.6 102620 58
2009-05-04 14:11:54 51°14.127 2°47.477 2.5 82 11.5 102630 58
2009-05-04 14:11:59 51°14.127 2°47.501 2.4 37 11.5 102630 58
2009-05-04 14:12:05 51°14.126 2°47.529 2.6 73 11.5 102620 57
2009-05-04 14:12:09 51°14.126 2°47.549 2.3 37 11.5 102620 57
2009-05-04 14:12:14 51°14.126 2°47.573 2.4 75 11.5 102630 57
2009-05-04 14:12:18 51°14.126 2°47.592 2.3 40 11.5 102630 57
2009-05-04 14:12:25 51°14.125 2°47.626 2 42 11.5 102620 57
2009-05-04 14:12:29 51°14.126 2°47.645 2.5 34 11.5 102620 57
2009-05-04 14:12:34 51°14.126 2°47.669 2.5 76 11.4 102620 57
2009-05-04 14:12:39 51°14.126 2°47.693 2.3 41 11.4 102620 57
2009-05-04 14:12:44 51°14.126 2°47.717 2.5 28 11.4 102620 58
2009-05-04 14:12:50 51°14.125 2°47.746 2.2 40 11.4 102620 58
2009-05-04 14:12:54 51°14.126 2°47.765 2.2 42 11.4 102620 58
2009-05-04 14:13:00 51°14.125 2°47.794 1.8 43 11.4 102620 58
2009-05-04 14:13:04 51°14.125 2°47.813 1.8 80 11.4 102620 57
2009-05-04 14:13:09 51°14.125 2°47.837 1.9 39 11.4 102620 57
2009-05-04 14:13:14 51°14.125 2°47.861 1.9 79 11.4 102630 57
2009-05-04 14:13:19 51°14.124 2°47.885 1.8 44 11.4 102630 57
2009-05-04 14:13:24 51°14.124 2°47.909 2.1 42 11.4 102630 57
2009-05-04 14:13:30 51°14.123 2°47.938 2.5 41 11.4 102630 57
2009-05-04 14:13:34 51°14.123 2°47.957 2.2 78 11.4 102620 58
2009-05-04 14:13:40 51°14.123 2°47.985 2.1 43 11.4 102620 58
2009-05-04 14:13:45 51°14.123 2°48.009 1.8 22 11.4 102630 59
2009-05-04 14:13:49 51°14.122 2°48.028 1.4 39 11.4 102630 59
2009-05-04 14:13:54 51°14.122 2°48.052 1 44 11.4 102620 59
2009-05-04 14:13:59 51°14.122 2°48.076 0.8 33 11.4 102620 59
2009-05-04 14:14:04 51°14.122 2°48.1 0.3 35 11.4 102620 59
2009-05-04 14:14:10 51°14.122 2°48.129 1.7 31 11.4 102620 59
2009-05-04 14:14:14 51°14.121 2°48.148 2.5 38 11.4 102620 60
2009-05-04 14:14:18 51°14.122 2°48.167 2.6 37 11.4 102620 60
2009-05-04 14:14:25 51°14.122 2°48.2 1.9 40 11.4 102630 61
2009-05-04 14:14:29 51°14.122 2°48.219 2.3 40 11.4 102630 61
2009-05-04 14:14:34 51°14.122 2°48.243 2 81 11.4 102630 62
2009-05-04 14:14:39 51°14.125 2°48.266 2.3 41 11.4 102630 62
2009-05-04 14:14:44 51°14.125 2°48.29 1.8 19 11.4 102630 61
2009-05-04 14:14:50 51°14.129 2°48.318 1.1 40 11.4 102630 61
2009-05-04 14:14:54 51°14.13 2°48.336 1.5 78 11.4 102620 60
2009-05-04 14:14:58 51°14.133 2°48.355 0.9 41 11.4 102620 60
2009-05-04 14:15:04 51°14.135 2°48.383 0.9 81 11.5 102620 61
2009-05-04 14:15:09 51°14.138 2°48.406 0.6 36 11.5 102620 61
2009-05-04 14:15:14 51°14.141 2°48.429 0.6 84 11.5 102620 60
2009-05-04 14:15:19 51°14.144 2°48.452 1.4 42 11.5 102620 60
2009-05-04 14:15:24 51°14.146 2°48.476 1.3 76 11.4 102620 61
2009-05-04 14:15:30 51°14.149 2°48.503 1.3 32 11.4 102620 61
2009-05-04 14:15:34 51°14.152 2°48.522 2.6 79 11.5 102630 61
2009-05-04 14:15:39 51°14.155 2°48.545 2.5 38 11.5 102630 61
2009-05-04 14:15:44 51°14.158 2°48.568 2.4 26 11.5 102620 61
2009-05-04 14:15:49 51°14.161 2°48.591 2.4 33 11.5 102620 61
2009-05-04 14:15:54 51°14.163 2°48.614 3.2 77 11.5 102620 61
2009-05-04 14:16:00 51°14.167 2°48.642 2.6 31 11.5 102620 61
2009-05-04 14:16:04 51°14.169 2°48.66 2.6 80 11.6 102620 62
2009-05-04 14:16:09 51°14.173 2°48.683 2.3 31 11.6 102620 62
2009-05-04 14:16:14 51°14.175 2°48.706 2.5 80 11.6 102620 61
2009-05-04 14:16:19 51°14.178 2°48.729 2.7 38 11.6 102620 61
2009-05-04 14:16:25 51°14.181 2°48.757 2.8 82 11.5 102620 60
2009-05-04 14:16:29 51°14.184 2°48.776 2.3 30 11.5 102620 60
2009-05-04 14:16:34 51°14.187 2°48.799 2.1 82 11.5 102620 60
2009-05-04 14:16:39 51°14.189 2°48.822 1.7 31 11.5 102620 60
2009-05-04 14:16:45 51°14.193 2°48.85 2 28 11.5 102620 60
2009-05-04 14:16:49 51°14.195 2°48.868 1.6 38 11.5 102620 60
2009-05-04 14:16:54 51°14.197 2°48.892 1.3 80 11.5 102620 60
2009-05-04 14:16:59 51°14.201 2°48.915 1.2 39 11.5 102620 60
2009-05-04 14:17:05 51°14.204 2°48.943 1 292 11.5 102630 60
2009-05-04 14:17:10 51°14.208 2°48.966 1.4 27 11.5 102630 60
2009-05-04 14:17:14 51°14.209 2°48.984 1.8 78 11.5 102620 60
2009-05-04 14:17:18 51°14.212 2°49.003 2.3 39 11.5 102620 60
2009-05-04 14:17:24 51°14.215 2°49.031 1.7 80 11.5 102610 61
2009-05-04 14:17:30 51°14.219 2°49.059 1.7 31 11.5 102610 61
2009-05-04 14:17:34 51°14.221 2°49.077 2 73 11.6 102620 61
2009-05-04 14:17:40 51°14.224 2°49.105 1.8 30 11.6 102620 61
2009-05-04 14:17:44 51°14.227 2°49.124 1.9 27 11.6 102620 62
2009-05-04 14:17:49 51°14.229 2°49.147 1.8 36 11.6 102620 62
2009-05-04 14:17:54 51°14.232 2°49.17 1.6 82 11.6 102620 62
2009-05-04 14:17:59 51°14.234 2°49.194 1.4 33 11.6 102620 62
2009-05-04 14:18:04 51°14.236 2°49.217 1.7 79 11.6 102620 63
2009-05-04 14:18:09 51°14.239 2°49.24 2.8 35 11.6 102620 63
2009-05-04 14:18:14 51°14.242 2°49.263 2.4 81 11.7 102610 63
2009-05-04 14:18:20 51°14.245 2°49.29 2.3 37 11.7 102610 63
2009-05-04 14:18:24 51°14.247 2°49.309 1.7 79 11.7 102620 63
2009-05-04 14:18:29 51°14.25 2°49.332 2.8 32 11.7 102620 63
2009-05-04 14:18:34 51°14.253 2°49.355 2.1 79 11.7 102610 62
2009-05-04 14:18:39 51°14.256 2°49.378 2.1 30 11.7 102610 62
2009-05-04 14:18:45 51°14.259 2°49.406 2.5 27 11.6 102620 61
2009-05-04 14:18:49 51°14.262 2°49.424 2.2 40 11.6 102620 61
2009-05-04 14:18:54 51°14.265 2°49.447 1.3 73 11.7 102620 62
2009-05-04 14:18:59 51°14.267 2°49.47 1.6 31 11.7 102620 62
2009-05-04 14:19:05 51°14.271 2°49.498 2.6 79 11.7 102620 62
2009-05-04 14:19:10 51°14.273 2°49.521 2.7 37 11.7 102620 62
2009-05-04 14:19:14 51°14.275 2°49.539 1.5 82 11.7 102620 62
2009-05-04 14:19:18 51°14.277 2°49.558 2.3 39 11.7 102620 62
2009-05-04 14:19:25 51°14.28 2°49.59 2.8 81 11.7 102620 62
2009-05-04 14:19:29 51°14.283 2°49.608 2.3 37 11.7 102620 62
2009-05-04 14:19:34 51°14.285 2°49.632 1.8 80 11.7 102610 61
2009-05-04 14:19:39 51°14.287 2°49.655 2.4 40 11.7 102610 61
2009-05-04 14:19:44 51°14.29 2°49.678 2 27 11.7 102610 60
2009-05-04 14:19:50 51°14.294 2°49.705 1.7 37 11.7 102610 60
2009-05-04 14:19:54 51°14.296 2°49.724 1.7 75 11.7 102610 60
2009-05-04 14:20:00 51°14.299 2°49.751 2.1 37 11.7 102610 60
2009-05-04 14:20:04 51°14.301 2°49.77 1.9 81 11.7 102620 60
2009-05-04 14:20:10 51°14.304 2°49.798 2.3 36 11.7 102620 60
2009-05-04 14:20:14 51°14.306 2°49.816 1.9 75 11.7 102610 60
2009-05-04 14:20:20 51°14.309 2°49.844 1.6 40 11.7 102610 60
2009-05-04 14:20:24 51°14.312 2°49.862 2.1 74 11.7 102610 60
2009-05-04 14:20:29 51°14.314 2°49.886 2.2 40 11.7 102610 60
2009-05-04 14:20:34 51°14.316 2°49.909 2.3 75 11.7 102620 60
2009-05-04 14:20:39 51°14.319 2°49.932 1.8 40 11.7 102620 60
2009-05-04 14:20:45 51°14.322 2°49.96 1.8 27 11.7 102610 59
2009-05-04 14:20:50 51°14.325 2°49.983 1.7 37 11.7 102610 59
2009-05-04 14:20:54 51°14.326 2°50.002 2 72 11.6 102620 58
2009-05-04 14:21:00 51°14.33 2°50.029 2 34 11.6 102620 58
2009-05-04 14:21:05 51°14.332 2°50.053 1.6 78 11.6 102610 57
2009-05-04 14:21:09 51°14.334 2°50.071 2.1 29 11.6 102610 57
2009-05-04 14:21:14 51°14.337 2°50.094 2.1 82 11.6 102610 57
2009-05-04 14:21:18 51°14.34 2°50.113 2.3 31 11.6 102610 57
2009-05-04 14:21:25 51°14.344 2°50.145 1.5 74 11.6 102620 58
2009-05-04 14:21:29 51°14.346 2°50.163 1.7 40 11.6 102620 58
2009-05-04 14:21:34 51°14.349 2°50.186 1.2 72 11.6 102610 58
2009-05-04 14:21:39 51°14.352 2°50.21 1.8 37 11.6 102610 58
2009-05-04 14:21:45 51°14.355 2°50.237 1.7 25 11.6 102610 58
2009-05-04 14:21:50 51°14.358 2°50.26 1.1 40 11.6 102610 58
2009-05-04 14:21:54 51°14.36 2°50.279 0.8 74 11.6 102610 59
2009-05-04 14:22:00 51°14.363 2°50.307 1.4 31 11.6 102610 59
2009-05-04 14:22:04 51°14.364 2°50.325 1.2 81 11.7 102610 59
2009-05-04 14:22:09 51°14.367 2°50.349 0.8 32 11.7 102610 59
2009-05-04 14:22:14 51°14.368 2°50.372 1.5 84 11.7 102610 60
2009-05-04 14:22:19 51°14.371 2°50.395 0.9 39 11.7 102610 60
2009-05-04 14:22:24 51°14.373 2°50.419 0.5 80 11.7 102620 60
2009-05-04 14:22:29 51°14.376 2°50.442 1.8 37 11.7 102620 60
2009-05-04 14:22:34 51°14.378 2°50.465 2.3 80 11.7 102610 60
2009-05-04 14:22:39 51°14.381 2°50.488 2.2 37 11.7 102610 60
2009-05-04 14:22:45 51°14.383 2°50.516 1.7 21 11.8 102610 60
2009-05-04 14:22:49 51°14.385 2°50.535 1.8 32 11.8 102610 60
2009-05-04 14:22:54 51°14.388 2°50.558 2.6 75 11.8 102610 60
2009-05-04 14:22:59 51°14.391 2°50.581 2.4 32 11.8 102610 60
2009-05-04 14:23:04 51°14.393 2°50.604 2.6 80 11.8 102600 60
2009-05-04 14:23:10 51°14.396 2°50.632 2.7 38 11.8 102600 60
2009-05-04 14:23:14 51°14.398 2°50.651 3.1 76 11.8 102610 59
2009-05-04 14:23:20 51°14.401 2°50.678 2.3 39 11.8 102610 59
2009-05-04 14:23:25 51°14.404 2°50.702 2.8 82 11.8 102610 58
2009-05-04 14:23:29 51°14.407 2°50.72 2.1 37 11.8 102610 58
2009-05-04 14:23:34 51°14.41 2°50.742 2.1 80 11.8 102610 57
2009-05-04 14:23:40 51°14.413 2°50.77 2.5 38 11.8 102610 57
2009-05-04 14:23:45 51°14.415 2°50.793 2.9 28 11.8 102610 57
2009-05-04 14:23:49 51°14.417 2°50.812 2.7 32 11.8 102610 57
2009-05-04 14:23:54 51°14.42 2°50.835 1.5 73 11.8 102610 58
2009-05-04 14:23:59 51°14.422 2°50.858 1.9 39 11.8 102610 58
2009-05-04 14:24:05 51°14.426 2°50.885 1.8 82 11.7 102610 56
2009-05-04 14:24:10 51°14.428 2°50.909 1.7 37 11.7 102610 56
2009-05-04 14:24:14 51°14.43 2°50.927 2.1 82 11.7 102620 56
2009-05-04 14:24:19 51°14.432 2°50.95 2.3 33 11.7 102620 56
2009-05-04 14:24:24 51°14.435 2°50.973 2.3 79 11.7 102610 56
2009-05-04 14:24:29 51°14.437 2°50.997 2.3 38 11.7 102610 56
2009-05-04 14:24:34 51°14.44 2°51.02 2 76 11.7 102610 57
2009-05-04 14:24:39 51°14.443 2°51.043 2.6 33 11.7 102610 57
2009-05-04 14:24:44 51°14.446 2°51.066 2.1 23 11.7 102610 56
2009-05-04 14:24:50 51°14.449 2°51.093 1.7 37 11.7 102610 56
2009-05-04 14:24:54 51°14.451 2°51.112 2.1 74 11.7 102610 56
2009-05-04 14:25:00 51°14.454 2°51.14 2 37 11.7 102610 56
2009-05-04 14:25:04 51°14.456 2°51.158 2.6 77 11.7 102610 57
2009-05-04 14:25:09 51°14.459 2°51.181 1.7 35 11.7 102610 57
2009-05-04 14:25:14 51°14.462 2°51.204 1.1 75 11.7 102610 58
2009-05-04 14:25:20 51°14.464 2°51.232 1.8 32 11.7 102610 58
2009-05-04 14:25:25 51°14.467 2°51.255 2 81 11.7 102610 58
2009-05-04 14:25:29 51°14.469 2°51.274 1.6 37 11.7 102610 58
2009-05-04 14:25:34 51°14.471 2°51.297 1.1 75 11.7 102610 58
2009-05-04 14:25:39 51°14.474 2°51.32 1.8 37 11.7 102610 58
2009-05-04 14:25:45 51°14.476 2°51.348 1.9 19 11.7 102610 58
2009-05-04 14:25:49 51°14.479 2°51.367 1.8 33 11.7 102610 58
2009-05-04 14:25:54 51°14.481 2°51.39 1.3 78 11.7 102610 58
2009-05-04 14:26:00 51°14.484 2°51.417 1.6 35 11.7 102610 58
2009-05-04 14:26:05 51°14.487 2°51.441 2 81 11.7 102610 58
2009-05-04 14:26:09 51°14.489 2°51.459 1.5 32 11.7 102610 58
2009-05-04 14:26:14 51°14.491 2°51.482 1.2 75 11.8 102610 57
2009-05-04 14:26:19 51°14.494 2°51.506 1.5 38 11.8 102610 57
2009-05-04 14:26:24 51°14.497 2°51.529 2.2 74 11.8 102610 57
2009-05-04 14:26:30 51°14.5 2°51.557 1.8 38 11.8 102610 57
2009-05-04 14:26:34 51°14.503 2°51.575 1.3 79 11.8 102610 57
2009-05-04 14:26:40 51°14.506 2°51.603 0.9 30 11.8 102610 57
2009-05-04 14:26:45 51°14.509 2°51.626 0.7 20 11.8 102610 57
2009-05-04 14:26:49 51°14.512 2°51.644 2.1 31 11.8 102610 57
2009-05-04 14:26:54 51°14.516 2°51.667 2.2 79 11.8 102610 56
2009-05-04 14:26:59 51°14.518 2°51.69 1.9 38 11.8 102610 56
2009-05-04 14:27:04 51°14.522 2°51.713 1.9 77 11.8 102610 57
2009-05-04 14:27:10 51°14.526 2°51.741 1.4 41 11.8 102610 57
2009-05-04 14:27:14 51°14.529 2°51.759 1.7 79 11.8 102610 57
2009-05-04 14:27:20 51°14.533 2°51.787 1.4 31 11.8 102610 57
2009-05-04 14:27:25 51°14.536 2°51.81 1.2 81 11.8 102610 56
2009-05-04 14:27:29 51°14.539 2°51.828 1.8 30 11.8 102610 56
2009-05-04 14:27:34 51°14.542 2°51.851 1.6 74 11.8 102610 56
2009-05-04 14:27:40 51°14.546 2°51.879 2 38 11.8 102610 56
2009-05-04 14:27:45 51°14.547 2°51.902 1.5 22 11.8 102610 56
2009-05-04 14:27:49 51°14.549 2°51.921 1.1 32 11.8 102610 56
2009-05-04 14:27:54 51°14.551 2°51.944 2 77 11.8 102610 56
2009-05-04 14:27:59 51°14.552 2°51.968 1.9 39 11.8 102610 56
2009-05-04 14:28:05 51°14.554 2°51.996 2.3 75 11.7 102610 56
2009-05-04 14:28:09 51°14.555 2°52.014 2.4 40 11.7 102610 56
2009-05-04 14:28:14 51°14.556 2°52.038 2.8 44 11.7 102610 56
2009-05-04 14:28:19 51°14.556 2°52.062 2.4 32 11.7 102610 56
2009-05-04 14:28:25 51°14.557 2°52.089 2.7 42 11.8 102610 57
2009-05-04 14:28:30 51°14.556 2°52.113 2.1 37 11.8 102610 57
2009-05-04 14:28:34 51°14.557 2°52.132 2.7 42 11.7 102610 57
2009-05-04 14:28:39 51°14.556 2°52.156 2.6 40 11.7 102610 57
2009-05-04 14:28:45 51°14.556 2°52.185 2.2 20 11.8 102610 57
2009-05-04 14:28:50 51°14.555 2°52.209 2 39 11.8 102610 57
2009-05-04 14:28:54 51°14.555 2°52.228 1.9 25 11.8 102610 58
2009-05-04 14:28:59 51°14.554 2°52.251 2.3 33 11.8 102610 58
2009-05-04 14:29:05 51°14.553 2°52.28 1.9 38 11.7 102610 58
2009-05-04 14:29:10 51°14.552 2°52.304 2.4 34 11.7 102610 58
2009-05-04 14:29:14 51°14.551 2°52.323 2 36 11.7 102610 58
2009-05-04 14:29:19 51°14.55 2°52.347 1.9 36 11.7 102610 58
2009-05-04 14:29:24 51°14.548 2°52.371 2.4 43 11.7 102600 59
2009-05-04 14:29:30 51°14.547 2°52.4 2.2 34 11.7 102600 59
2009-05-04 14:29:34 51°14.546 2°52.419 2.3 41 11.7 102610 60
2009-05-04 14:29:40 51°14.545 2°52.448 2.5 31 11.7 102610 60
2009-05-04 14:29:45 51°14.544 2°52.472 2.2 38 11.7 102610 59
2009-05-04 14:29:49 51°14.543 2°52.491 2.5 31 11.7 102610 59
2009-05-04 14:29:54 51°14.541 2°52.515 1.9 38 11.7 102610 60
2009-05-04 14:30:00 51°14.539 2°52.543 1.9 32 11.7 102610 60
2009-05-04 14:30:05 51°14.538 2°52.567 1.9 39 11.7 102610 60
2009-05-04 14:30:09 51°14.537 2°52.587 2.1 38 11.7 102610 60
2009-05-04 14:30:14 51°14.535 2°52.611 2.3 37 11.7 102610 60
2009-05-04 14:30:19 51°14.533 2°52.635 2.2 37 11.7 102610 60
2009-05-04 14:30:25 51°14.532 2°52.664 1.5 36 11.7 102610 60
2009-05-04 14:30:29 51°14.53 2°52.683 2.7 32 11.7 102610 60
2009-05-04 14:30:34 51°14.529 2°52.708 1.8 33 11.7 102610 60
2009-05-04 14:30:39 51°14.527 2°52.732 2.2 32 11.7 102610 60
2009-05-04 14:30:45 51°14.526 2°52.761 1.7 44 11.7 102610 60
2009-05-04 14:30:50 51°14.524 2°52.785 1.2 37 11.7 102610 60
2009-05-04 14:30:54 51°14.523 2°52.804 1.1 23 11.7 102610 60
2009-05-04 14:30:59 51°14.521 2°52.828 1.7 39 11.7 102610 60
2009-05-04 14:31:04 51°14.521 2°52.852 1.1 75 11.7 102620 60
2009-05-04 14:31:10 51°14.52 2°52.881 1.7 40 11.7 102620 60
2009-05-04 14:31:14 51°14.518 2°52.901 1.9 79 11.7 102610 61
2009-05-04 14:31:19 51°14.518 2°52.925 1.2 20 11.7 102610 61
2009-05-04 14:31:24 51°14.517 2°52.949 2.3 38 11.7 102610 62
2009-05-04 14:31:30 51°14.517 2°52.978 2 35 11.7 102610 62
2009-05-04 14:31:34 51°14.516 2°52.998 1.6 75 11.7 102610 62
2009-05-04 14:31:40 51°14.516 2°53.026 1.7 42 11.7 102610 62
2009-05-04 14:31:45 51°14.515 2°53.051 1.9 40 11.7 102610 63
2009-05-04 14:31:49 51°14.514 2°53.07 1.7 39 11.7 102610 63
2009-05-04 14:31:54 51°14.515 2°53.094 2.6 36 11.7 102610 62
2009-05-04 14:31:59 51°14.514 2°53.118 2.3 42 11.7 102610 62
2009-05-04 14:32:04 51°14.514 2°53.142 2.6 39 11.7 102610 61
2009-05-04 14:32:09 51°14.514 2°53.166 1.9 41 11.7 102610 61
2009-05-04 14:32:14 51°14.514 2°53.19 2 44 11.7 102610 62
2009-05-04 14:32:19 51°14.514 2°53.214 1.8 39 11.7 102610 62
2009-05-04 14:32:25 51°14.513 2°53.242 1.9 41 11.7 102610 60
2009-05-04 14:32:30 51°14.513 2°53.266 1.4 31 11.7 102610 60
2009-05-04 14:32:34 51°14.512 2°53.286 1.8 76 11.7 102610 59
2009-05-04 14:32:38 51°14.511 2°53.305 2.1 39 11.7 102610 59
2009-05-04 14:32:45 51°14.511 2°53.338 2.1 20 11.7 102610 59
2009-05-04 14:32:49 51°14.51 2°53.357 1.7 37 11.7 102610 59
2009-05-04 14:32:54 51°14.511 2°53.381 2.1 35 11.6 102610 58
2009-05-04 14:32:59 51°14.509 2°53.405 1.7 43 11.6 102610 58
2009-05-04 14:33:04 51°14.51 2°53.43 1.8 35 11.6 102610 58
2009-05-04 14:33:09 51°14.508 2°53.454 1.5 39 11.6 102610 58
2009-05-04 14:33:14 51°14.51 2°53.479 0.9 38 11.6 102610 58
2009-05-04 14:33:20 51°14.509 2°53.509 1.1 41 11.6 102610 58
2009-05-04 14:33:24 51°14.511 2°53.529 0.6 82 11.6 102610 59
2009-05-04 14:33:30 51°14.512 2°53.559 0.9 11 11.6 102610 59
2009-05-04 14:33:34 51°14.513 2°53.579 0.9 20 11.6 102610 59
2009-05-04 14:33:40 51°14.514 2°53.608 2.2 16 11.6 102610 59
2009-05-04 14:33:44 51°14.515 2°53.628 1.9 15 11.6 102610 59
2009-05-04 14:33:49 51°14.517 2°53.652 1.3 29 11.6 102610 59
2009-05-04 14:33:54 51°14.517 2°53.676 1.4 79 11.6 102610 61
2009-05-04 14:34:00 51°14.519 2°53.705 1.7 30 11.6 102610 61
2009-05-04 14:34:04 51°14.52 2°53.724 1.1 29 11.6 102610 61
2009-05-04 14:34:09 51°14.521 2°53.748 1.2 27 11.6 102610 61
2009-05-04 14:34:14 51°14.522 2°53.772 1.6 28 11.6 102610 62
2009-05-04 14:34:20 51°14.524 2°53.801 1.9 30 11.6 102610 62
2009-05-04 14:34:24 51°14.525 2°53.82 1.4 33 11.7 102610 61
2009-05-04 14:34:29 51°14.526 2°53.844 1.6 38 11.7 102610 61
2009-05-04 14:34:34 51°14.527 2°53.869 1.2 43 11.7 102610 62
2009-05-04 14:34:39 51°14.529 2°53.893 0.8 20 11.7 102610 62
2009-05-04 14:34:45 51°14.531 2°53.922 0.9 17 11.7 102610 62
2009-05-04 14:34:49 51°14.532 2°53.941 1.5 32 11.7 102610 62
2009-05-04 14:34:54 51°14.534 2°53.965 1.4 42 11.7 102610 61
2009-05-04 14:35:00 51°14.536 2°53.994 1.2 44 11.7 102610 61
2009-05-04 14:35:05 51°14.538 2°54.019 1.3 34 11.7 102610 61
2009-05-04 14:35:09 51°14.539 2°54.038 1.2 34 11.7 102610 61
2009-05-04 14:35:14 51°14.539 2°54.063 2 13 11.7 102610 61
2009-05-04 14:35:19 51°14.539 2°54.087 2.4 24 11.7 102610 61
2009-05-04 14:35:24 51°14.538 2°54.112 2 26 11.7 102610 60
2009-05-04 14:35:30 51°14.538 2°54.14 1.8 25 11.7 102610 60
2009-05-04 14:35:34 51°14.538 2°54.159 2.2 30 11.8 102610 60
2009-05-04 14:35:39 51°14.537 2°54.183 2.2 29 11.8 102610 60
2009-05-04 14:35:45 51°14.537 2°54.212 2.2 29 11.8 102610 60
2009-05-04 14:35:49 51°14.536 2°54.231 2.5 24 11.8 102610 60
2009-05-04 14:35:54 51°14.534 2°54.254 2.8 22 11.8 102610 60
2009-05-04 14:35:59 51°14.533 2°54.278 3.5 20 11.8 102610 60
2009-05-04 14:36:04 51°14.529 2°54.301 2.5 22 11.8 102600 60
2009-05-04 14:36:10 51°14.527 2°54.33 2.7 17 11.8 102600 60
2009-05-04 14:36:14 51°14.525 2°54.349 1.9 11 11.7 102610 60
2009-05-04 14:36:20 51°14.524 2°54.378 3.6 24 11.7 102610 60
2009-05-04 14:36:25 51°14.522 2°54.402 3.2 19 11.7 102600 61
2009-05-04 14:36:29 51°14.521 2°54.421 3.8 25 11.7 102600 61
2009-05-04 14:36:34 51°14.519 2°54.445 3.5 29 11.7 102610 62
2009-05-04 14:36:40 51°14.516 2°54.474 3.7 19 11.7 102610 62
2009-05-04 14:36:45 51°14.513 2°54.498 3.6 20 11.7 102600 63
2009-05-04 14:36:49 51°14.511 2°54.517 4.2 25 11.7 102600 63
2009-05-04 14:36:54 51°14.507 2°54.541 4.5 27 11.8 102600 63
2009-05-04 14:36:59 51°14.503 2°54.564 4.8 30 11.8 102600 63
2009-05-04 14:37:05 51°14.497 2°54.592 4.6 30 11.7 102600 62
2009-05-04 14:37:09 51°14.495 2°54.611 4.2 28 11.7 102600 62
2009-05-04 14:37:14 51°14.491 2°54.634 5.1 18 11.7 102600 61
2009-05-04 14:37:19 51°14.487 2°54.657 5.2 11 11.7 102600 61
2009-05-04 14:37:25 51°14.481 2°54.685 4.6 25 11.6 102600 58
2009-05-04 14:37:30 51°14.478 2°54.708 4.3 25 11.6 102600 58
2009-05-04 14:37:34 51°14.474 2°54.727 5 20 11.6 102600 60
2009-05-04 14:37:39 51°14.469 2°54.75 4.1 18 11.6 102600 60
2009-05-04 14:37:44 51°14.464 2°54.772 5.1 14 11.7 102600 62
2009-05-04 14:37:50 51°14.456 2°54.799 5.6 21 11.7 102600 62
2009-05-04 14:37:54 51°14.451 2°54.816 5.7 18 11.7 102600 63
2009-05-04 14:38:00 51°14.443 2°54.842 5.4 21 11.7 102600 63
2009-05-04 14:38:04 51°14.438 2°54.859 5.1 19 11.7 102600 63
2009-05-04 14:38:10 51°14.431 2°54.886 5 19 11.7 102600 63
2009-05-04 14:38:14 51°14.426 2°54.903 5.1 20 11.7 102590 63
2009-05-04 14:38:20 51°14.419 2°54.93 5.6 20 11.7 102590 63
2009-05-04 14:38:24 51°14.413 2°54.947 4.6 20 11.6 102600 62
2009-05-04 14:38:29 51°14.407 2°54.97 4 20 11.6 102600 62
2009-05-04 14:38:34 51°14.401 2°54.993 4.7 19 11.6 102600 61
2009-05-04 14:38:40 51°14.392 2°55.019 4.7 11 11.6 102600 61
2009-05-04 14:38:44 51°14.388 2°55.038 4.2 13 11.6 102600 61
2009-05-04 14:38:49 51°14.38 2°55.059 5.7 10 11.6 102600 61
2009-05-04 14:38:54 51°14.372 2°55.081 6.6 12 11.6 102600 60
2009-05-04 14:38:59 51°14.363 2°55.103 7.1 10 11.6 102600 60
2009-05-04 14:39:05 51°14.352 2°55.126 3.3 7 11.6 102600 60
2009-05-04 14:39:09 51°14.345 2°55.142 5.8 10 11.6 102600 60
2009-05-04 14:39:14 51°14.335 2°55.161 5.1 1 11.6 102600 63
2009-05-04 14:39:19 51°14.325 2°55.179 4.9 11 11.6 102600 63
2009-05-04 14:39:25 51°14.313 2°55.2 5.8 4 11.6 102600 63
2009-05-04 14:39:30 51°14.304 2°55.216 4.9 5 11.6 102600 63
2009-05-04 14:39:34 51°14.295 2°55.228 4.2 3 11.5 102600 62
2009-05-04 14:39:40 51°14.283 2°55.246 5.7 1 11.5 102600 62
2009-05-04 14:39:45 51°14.273 2°55.26 5.4 11 11.5 102600 61
2009-05-04 14:39:49 51°14.265 2°55.271 6 11 11.5 102600 61
2009-05-04 14:39:54 51°14.254 2°55.285 6.3 13 11.5 102600 61
2009-05-04 14:40:00 51°14.242 2°55.301 6.5 5 11.5 102600 61
2009-05-04 14:40:04 51°14.234 2°55.31 4.2 6 11.5 102600 62
2009-05-04 14:40:10 51°14.222 2°55.324 5.2 13 11.5 102600 62
2009-05-04 14:40:14 51°14.215 2°55.333 5.4 17 11.5 102600 63
2009-05-04 14:40:20 51°14.203 2°55.346 6.1 9 11.5 102600 63
2009-05-04 14:40:25 51°14.193 2°55.356 5 11 11.5 102590 63
2009-05-04 14:40:30 51°14.184 2°55.366 5.8 15 11.5 102590 63
2009-05-04 14:40:34 51°14.177 2°55.373 4.1 10 11.4 102600 63
2009-05-04 14:40:40 51°14.166 2°55.384 4.3 12 11.4 102600 63
2009-05-04 14:40:45 51°14.157 2°55.393 2.7 1 11.4 102600 63
2009-05-04 14:40:50 51°14.148 2°55.402 2.2 344 11.4 102600 63
2009-05-04 14:40:56 51°14.138 2°55.413 4 25 11.4 102600 62
2009-05-04 14:41:01 51°14.129 2°55.421 4.7 21 11.4 102600 62
2009-05-04 14:41:06 51°14.121 2°55.429 3.9 5 11.5 102600 63
2009-05-04 14:41:11 51°14.112 2°55.437 3.9 357 11.5 102600 63
2009-05-04 14:41:16 51°14.103 2°55.444 3 279 11.5 102600 62
2009-05-04 14:41:21 51°14.094 2°55.452 3.3 344 11.5 102600 62
2009-05-04 14:41:26 51°14.085 2°55.458 4.8 279 11.5 102600 61
2009-05-04 14:41:31 51°14.076 2°55.465 6 343 11.5 102600 61
2009-05-04 14:41:36 51°14.067 2°55.472 4.3 286 11.5 102600 61
2009-05-04 14:41:41 51°14.059 2°55.478 4 350 11.5 102600 61